createdAt,value
2018-12-06T00:02:09.038Z,0.50
2018-12-06T00:04:37.375Z,0.50
2018-12-06T00:07:05.816Z,0.50
2018-12-06T00:09:34.133Z,0.50
2018-12-06T00:12:02.751Z,0.50
2018-12-06T00:14:31.307Z,0.50
2018-12-06T00:16:59.615Z,0.50
2018-12-06T00:19:28.160Z,0.40
2018-12-06T00:21:56.464Z,0.40
2018-12-06T00:24:24.918Z,0.30
2018-12-06T00:26:53.401Z,0.30
2018-12-06T00:29:21.857Z,0.30
2018-12-06T00:31:50.237Z,0.20
2018-12-06T00:34:18.971Z,0.20
2018-12-06T00:36:47.287Z,0.20
2018-12-06T00:39:15.760Z,0.20
2018-12-06T00:41:44.111Z,0.10
2018-12-06T00:44:12.410Z,0.10
2018-12-06T00:46:40.730Z,0.10
2018-12-06T00:49:09.028Z,0.00
2018-12-06T00:51:37.372Z,-0.10
2018-12-06T00:54:05.691Z,0.00
2018-12-06T00:56:34.002Z,0.00
2018-12-06T00:59:02.359Z,0.00
2018-12-06T01:01:30.752Z,0.10
2018-12-06T01:03:59.079Z,0.10
2018-12-06T01:06:27.412Z,0.10
2018-12-06T01:08:55.799Z,0.10
2018-12-06T01:11:24.130Z,0.10
2018-12-06T01:13:52.787Z,0.10
2018-12-06T01:16:21.205Z,0.10
2018-12-06T01:18:49.602Z,0.20
2018-12-06T01:21:17.943Z,0.20
2018-12-06T01:23:46.271Z,0.20
2018-12-06T01:26:14.644Z,0.30
2018-12-06T01:28:43.038Z,0.30
2018-12-06T01:31:11.336Z,0.30
2018-12-06T01:33:39.635Z,0.30
2018-12-06T01:36:08.001Z,0.30
2018-12-06T01:38:36.336Z,0.30
2018-12-06T01:41:04.672Z,0.30
2018-12-06T01:43:33.641Z,0.20
2018-12-06T01:46:01.964Z,0.20
2018-12-06T01:48:30.293Z,0.20
2018-12-06T01:50:58.595Z,0.20
2018-12-06T01:53:27.154Z,0.10
2018-12-06T01:55:55.492Z,0.00
2018-12-06T01:58:23.781Z,0.00
2018-12-06T02:00:52.134Z,0.00
2018-12-06T02:03:20.670Z,0.00
2018-12-06T02:05:49.010Z,-0.10
2018-12-06T02:08:17.380Z,-0.10
2018-12-06T02:10:45.797Z,0.10
2018-12-06T02:13:14.121Z,0.30
2018-12-06T02:15:42.499Z,0.50
2018-12-06T02:18:10.897Z,0.60
2018-12-06T02:20:39.260Z,0.60
2018-12-06T02:23:07.615Z,0.70
2018-12-06T02:25:35.993Z,0.70
2018-12-06T02:28:04.306Z,0.60
2018-12-06T02:30:32.763Z,0.60
2018-12-06T02:33:01.119Z,0.60
2018-12-06T02:35:29.453Z,0.60
2018-12-06T02:37:57.794Z,0.60
2018-12-06T02:40:26.126Z,0.50
2018-12-06T02:42:54.445Z,0.50
2018-12-06T02:45:22.960Z,0.50
2018-12-06T02:47:51.333Z,0.50
2018-12-06T02:50:19.670Z,0.50
2018-12-06T02:52:48.013Z,0.50
2018-12-06T02:55:16.323Z,0.50
2018-12-06T02:57:44.611Z,0.50
2018-12-06T03:00:13.041Z,0.50
2018-12-06T03:02:41.497Z,0.50
2018-12-06T03:05:09.832Z,0.50
2018-12-06T03:07:38.225Z,0.60
2018-12-06T03:10:06.649Z,0.60
2018-12-06T03:12:35.023Z,0.60
2018-12-06T03:15:03.470Z,0.70
2018-12-06T03:17:31.783Z,0.70
2018-12-06T03:20:00.277Z,0.70
2018-12-06T03:22:28.625Z,0.70
2018-12-06T03:24:57.013Z,0.80
2018-12-06T03:27:25.305Z,0.80
2018-12-06T03:29:53.627Z,0.80
2018-12-06T03:32:22.159Z,0.80
2018-12-06T03:34:50.420Z,0.80
2018-12-06T03:37:18.718Z,0.80
2018-12-06T03:39:47.110Z,0.80
2018-12-06T03:42:15.437Z,0.80
2018-12-06T03:44:43.798Z,0.80
2018-12-06T03:47:12.146Z,0.70
2018-12-06T03:49:40.488Z,0.70
2018-12-06T03:52:08.804Z,0.70
2018-12-06T03:54:37.303Z,0.80
2018-12-06T03:57:05.601Z,0.80
2018-12-06T03:59:34.021Z,0.80
2018-12-06T04:02:02.363Z,0.90
2018-12-06T04:04:30.719Z,0.90
2018-12-06T04:06:59.079Z,0.90
2018-12-06T04:09:27.445Z,0.90
2018-12-06T04:11:55.763Z,1.00
2018-12-06T04:14:24.070Z,1.00
2018-12-06T04:16:52.551Z,1.00
2018-12-06T04:19:20.856Z,1.00
2018-12-06T04:21:49.380Z,1.00
2018-12-06T04:24:17.878Z,1.00
2018-12-06T04:26:46.332Z,1.00
2018-12-06T04:29:14.689Z,1.00
2018-12-06T04:31:43.010Z,1.10
2018-12-06T04:34:11.626Z,1.10
2018-12-06T04:36:40.018Z,1.10
2018-12-06T04:39:08.718Z,1.10
2018-12-06T04:41:37.140Z,1.10
2018-12-06T04:44:05.481Z,1.10
2018-12-06T04:46:33.807Z,1.10
2018-12-06T04:49:02.119Z,1.20
2018-12-06T04:51:30.460Z,1.20
2018-12-06T04:53:58.817Z,1.20
2018-12-06T04:56:27.081Z,1.30
2018-12-06T04:58:55.402Z,1.30
2018-12-06T05:01:23.698Z,1.30
2018-12-06T05:03:51.982Z,1.30
2018-12-06T05:06:20.605Z,1.30
2018-12-06T05:08:48.971Z,1.30
2018-12-06T05:11:17.308Z,1.30
2018-12-06T05:13:45.690Z,1.30
2018-12-06T05:16:14.130Z,1.30
2018-12-06T05:18:42.451Z,1.30
2018-12-06T05:21:10.818Z,1.30
2018-12-06T05:23:39.556Z,1.40
2018-12-06T05:26:07.935Z,1.40
2018-12-06T05:28:36.240Z,1.40
2018-12-06T05:31:04.630Z,1.50
2018-12-06T05:33:33.277Z,1.40
2018-12-06T05:36:01.552Z,1.40
2018-12-06T05:38:29.868Z,1.40
2018-12-06T05:40:58.314Z,1.40
2018-12-06T05:43:26.642Z,1.40
2018-12-06T05:45:55.012Z,1.50
2018-12-06T05:48:23.330Z,1.40
2018-12-06T05:50:51.655Z,1.40
2018-12-06T05:53:20.014Z,1.50
2018-12-06T05:55:48.417Z,1.50
2018-12-06T05:58:16.840Z,1.50
2018-12-06T06:00:45.181Z,1.50
2018-12-06T06:03:13.579Z,1.50
2018-12-06T06:05:42.045Z,1.50
2018-12-06T06:08:10.410Z,1.50
2018-12-06T06:10:38.744Z,1.50
2018-12-06T06:13:07.052Z,1.50
2018-12-06T06:15:35.519Z,1.50
2018-12-06T06:18:03.890Z,1.50
2018-12-06T06:20:32.268Z,1.40
2018-12-06T06:23:01.022Z,1.50
2018-12-06T06:25:29.914Z,1.40
2018-12-06T06:27:58.293Z,1.40
2018-12-06T06:30:26.638Z,1.40
2018-12-06T06:32:54.959Z,1.40
2018-12-06T06:35:23.299Z,1.40
2018-12-06T06:37:51.629Z,1.40
2018-12-06T06:40:20.003Z,1.40
2018-12-06T06:42:48.341Z,1.40
2018-12-06T06:45:16.727Z,1.40
2018-12-06T06:47:45.028Z,1.50
2018-12-06T06:50:13.325Z,1.60
2018-12-06T06:52:41.634Z,1.60
2018-12-06T06:55:10.086Z,1.60
2018-12-06T06:57:38.399Z,1.60
2018-12-06T07:00:06.897Z,1.60
2018-12-06T07:02:35.215Z,1.60
2018-12-06T07:05:03.634Z,1.60
2018-12-06T07:07:31.999Z,1.50
2018-12-06T07:10:00.411Z,1.50
2018-12-06T07:12:28.796Z,1.50
2018-12-06T07:14:57.151Z,1.50
2018-12-06T07:17:25.573Z,1.50
2018-12-06T07:19:53.971Z,1.60
2018-12-06T07:22:22.391Z,1.60
2018-12-06T07:24:51.046Z,1.70
2018-12-06T07:27:19.769Z,1.80
2018-12-06T07:29:48.639Z,1.80
2018-12-06T07:32:16.595Z,1.80
2018-12-06T07:34:44.907Z,1.70
2018-12-06T07:37:13.267Z,1.80
2018-12-06T07:39:41.560Z,1.80
2018-12-06T07:42:09.900Z,1.80
2018-12-06T07:44:38.283Z,1.80
2018-12-06T07:47:06.609Z,1.80
2018-12-06T07:49:34.972Z,1.80
2018-12-06T07:52:03.278Z,1.90
2018-12-06T07:54:31.574Z,1.90
2018-12-06T07:56:59.965Z,2.10
2018-12-06T07:59:28.468Z,2.10
2018-12-06T08:01:56.803Z,2.10
2018-12-06T08:04:25.191Z,2.10
2018-12-06T08:06:53.512Z,2.00
2018-12-06T08:09:21.818Z,2.00
2018-12-06T08:11:50.627Z,2.00
2018-12-06T08:14:18.953Z,2.00
2018-12-06T08:16:47.522Z,2.00
2018-12-06T08:19:15.821Z,2.10
2018-12-06T08:21:44.119Z,2.20
2018-12-06T08:24:12.463Z,2.20
2018-12-06T08:26:40.761Z,2.20
2018-12-06T08:29:09.263Z,2.10
2018-12-06T08:31:37.784Z,2.10
2018-12-06T08:34:06.603Z,2.10
2018-12-06T08:36:34.454Z,2.20
2018-12-06T08:39:02.894Z,2.20
2018-12-06T08:41:31.281Z,2.30
2018-12-06T08:43:59.668Z,2.30
2018-12-06T08:46:28.027Z,2.30
2018-12-06T08:49:02.813Z,2.30
2018-12-06T08:51:24.792Z,2.30
2018-12-06T08:53:53.146Z,2.20
2018-12-06T08:56:21.488Z,2.30
2018-12-06T08:58:49.796Z,2.30
2018-12-06T09:01:18.212Z,2.40
2018-12-06T09:03:46.549Z,2.30
2018-12-06T09:06:14.891Z,2.30
2018-12-06T09:08:43.290Z,2.30
2018-12-06T09:11:11.623Z,2.40
2018-12-06T09:13:40.021Z,2.40
2018-12-06T09:16:08.660Z,2.40
2018-12-06T09:18:37.013Z,2.40
2018-12-06T09:21:05.411Z,2.40
2018-12-06T09:23:33.735Z,2.40
2018-12-06T09:26:02.046Z,2.40
2018-12-06T09:28:30.380Z,2.40
2018-12-06T09:31:01.196Z,2.40
2018-12-06T09:33:27.223Z,2.40
2018-12-06T09:35:55.644Z,2.50
2018-12-06T09:38:24.043Z,2.50
2018-12-06T09:40:52.518Z,2.60
2018-12-06T09:43:21.022Z,2.60
2018-12-06T09:45:49.313Z,2.60
2018-12-06T09:48:17.631Z,2.70
2018-12-06T09:50:45.974Z,2.70
2018-12-06T09:53:14.521Z,2.70
2018-12-06T09:55:42.815Z,2.70
2018-12-06T09:58:11.168Z,2.80
2018-12-06T10:00:39.782Z,2.80
2018-12-06T10:03:08.100Z,2.80
2018-12-06T10:05:36.543Z,2.80
2018-12-06T10:08:04.868Z,2.90
2018-12-06T10:10:33.220Z,2.90
2018-12-06T10:13:01.575Z,3.00
2018-12-06T10:15:29.899Z,3.00
2018-12-06T10:17:58.396Z,3.00
2018-12-06T10:20:26.783Z,3.00
2018-12-06T10:22:55.390Z,3.10
2018-12-06T10:25:23.843Z,3.10
2018-12-06T10:27:52.474Z,3.10
2018-12-06T10:30:20.836Z,3.10
2018-12-06T10:32:49.516Z,3.10
2018-12-06T10:35:17.854Z,3.10
2018-12-06T10:37:46.520Z,3.10
2018-12-06T10:40:14.896Z,3.20
2018-12-06T10:42:43.289Z,3.20
2018-12-06T10:45:11.673Z,3.20
2018-12-06T10:47:40.009Z,3.20
2018-12-06T10:50:08.343Z,3.20
2018-12-06T10:52:36.743Z,3.10
2018-12-06T10:55:05.097Z,3.10
2018-12-06T10:57:33.385Z,3.10
2018-12-06T11:00:01.797Z,3.10
2018-12-06T11:02:35.382Z,3.10
2018-12-06T11:05:03.805Z,3.10
2018-12-06T11:07:32.184Z,3.10
2018-12-06T11:10:00.525Z,3.10
2018-12-06T11:12:28.864Z,3.10
2018-12-06T11:14:57.197Z,3.10
2018-12-06T11:17:25.535Z,3.20
2018-12-06T11:19:53.910Z,3.10
2018-12-06T11:22:22.307Z,3.10
2018-12-06T11:24:50.620Z,3.10
2018-12-06T11:27:18.934Z,3.20
2018-12-06T11:29:48.409Z,3.20
2018-12-06T11:32:16.736Z,3.20
2018-12-06T11:34:45.274Z,3.20
2018-12-06T11:37:13.823Z,3.20
2018-12-06T11:39:42.157Z,3.20
2018-12-06T11:42:10.535Z,3.30
2018-12-06T11:44:38.911Z,3.30
2018-12-06T11:47:07.223Z,3.30
2018-12-06T11:49:35.544Z,3.30
2018-12-06T11:52:03.924Z,3.30
2018-12-06T11:54:32.402Z,3.30
2018-12-06T11:57:00.723Z,3.30
2018-12-06T11:59:29.087Z,3.30
2018-12-06T12:01:57.531Z,3.30
2018-12-06T12:04:25.931Z,3.20
2018-12-06T12:06:54.323Z,3.30
2018-12-06T12:09:22.640Z,3.30
2018-12-06T12:11:50.931Z,3.30
2018-12-06T12:14:19.301Z,3.30
2018-12-06T12:16:47.697Z,3.30
2018-12-06T12:19:16.047Z,3.40
2018-12-06T12:21:44.580Z,3.40
2018-12-06T12:24:13.092Z,3.50
2018-12-06T12:26:41.396Z,3.60
2018-12-06T12:29:10.018Z,3.60
2018-12-06T12:31:38.346Z,3.60
2018-12-06T12:34:06.735Z,3.60
2018-12-06T12:36:35.301Z,3.70
2018-12-06T12:39:03.803Z,3.70
2018-12-06T12:41:32.309Z,3.60
2018-12-06T12:44:00.642Z,3.50
2018-12-06T12:46:31.613Z,3.40
2018-12-06T12:49:00.101Z,3.40
2018-12-06T12:51:28.432Z,3.30
2018-12-06T12:53:56.738Z,3.30
2018-12-06T12:56:25.277Z,3.20
2018-12-06T12:58:53.603Z,3.20
2018-12-06T13:01:21.993Z,3.20
2018-12-06T13:03:50.304Z,3.20
2018-12-06T13:06:18.625Z,3.10
2018-12-06T13:08:47.020Z,3.10
2018-12-06T13:11:15.525Z,3.10
2018-12-06T13:13:43.835Z,3.10
2018-12-06T13:16:12.193Z,3.00
2018-12-06T13:18:40.522Z,2.90
2018-12-06T13:21:08.851Z,2.80
2018-12-06T13:23:37.225Z,2.80
2018-12-06T13:26:05.539Z,2.90
2018-12-06T13:28:34.283Z,2.90
2018-12-06T13:31:02.596Z,2.90
2018-12-06T13:33:30.969Z,2.90
2018-12-06T13:35:59.345Z,2.90
2018-12-06T13:38:27.769Z,2.90
2018-12-06T13:40:56.282Z,2.80
2018-12-06T13:43:24.759Z,2.80
2018-12-06T13:45:53.407Z,2.80
2018-12-06T13:48:21.739Z,2.80
2018-12-06T13:50:50.102Z,2.80
2018-12-06T13:53:18.537Z,2.80
2018-12-06T13:55:46.959Z,2.80
2018-12-06T13:58:15.383Z,2.90
2018-12-06T14:00:43.910Z,2.80
2018-12-06T14:03:12.399Z,2.80
2018-12-06T14:05:40.850Z,2.80
2018-12-06T14:08:09.359Z,2.90
2018-12-06T14:10:37.687Z,2.80
2018-12-06T14:13:06.067Z,2.80
2018-12-06T14:15:34.859Z,2.70
2018-12-06T14:18:03.167Z,2.80
2018-12-06T14:20:31.554Z,2.70
2018-12-06T14:22:59.868Z,2.70
2018-12-06T14:25:28.210Z,2.70
2018-12-06T14:27:56.546Z,2.60
2018-12-06T14:30:24.909Z,2.60
2018-12-06T14:32:53.335Z,2.50
2018-12-06T14:35:21.749Z,2.40
2018-12-06T14:37:50.032Z,2.30
2018-12-06T14:40:18.510Z,2.20
2018-12-06T14:42:47.015Z,2.10
2018-12-06T14:45:15.432Z,2.00
2018-12-06T14:47:43.911Z,1.80
2018-12-06T14:50:12.308Z,1.60
2018-12-06T14:52:40.621Z,1.50
2018-12-06T14:55:08.992Z,1.40
2018-12-06T14:57:37.300Z,1.30
2018-12-06T15:00:07.213Z,1.20
2018-12-06T15:02:35.611Z,1.10
2018-12-06T15:05:04.768Z,1.00
2018-12-06T15:07:33.147Z,1.00
2018-12-06T15:10:01.975Z,0.90
2018-12-06T15:12:30.623Z,0.90
2018-12-06T15:14:58.953Z,0.80
2018-12-06T15:17:27.414Z,0.70
2018-12-06T15:19:55.733Z,0.70
2018-12-06T15:22:24.066Z,0.60
2018-12-06T15:24:52.486Z,0.60
2018-12-06T15:27:20.829Z,0.50
2018-12-06T15:29:49.294Z,0.50
2018-12-06T15:32:17.604Z,0.40
2018-12-06T15:34:46.673Z,0.40
2018-12-06T15:37:15.063Z,0.30
2018-12-06T15:39:43.403Z,0.30
2018-12-06T15:42:11.814Z,0.20
2018-12-06T15:44:40.167Z,0.10
2018-12-06T15:47:08.533Z,0.10
2018-12-06T15:49:36.866Z,0.10
2018-12-06T15:52:05.215Z,0.00
2018-12-06T15:54:33.548Z,-0.10
2018-12-06T15:57:02.041Z,-0.10
2018-12-06T15:59:30.418Z,-0.10
2018-12-06T16:01:58.762Z,-0.10
2018-12-06T16:04:27.140Z,-0.10
2018-12-06T16:06:55.552Z,-0.20
2018-12-06T16:09:23.895Z,-0.20
2018-12-06T16:11:52.828Z,-0.20
2018-12-06T16:14:21.194Z,-0.20
2018-12-06T16:16:49.689Z,-0.20
2018-12-06T16:19:18.390Z,-0.20
2018-12-06T16:21:47.201Z,-0.30
2018-12-06T16:24:15.713Z,-0.30
2018-12-06T16:26:44.136Z,-0.30
2018-12-06T16:29:12.591Z,-0.30
2018-12-06T16:31:40.892Z,-0.30
2018-12-06T16:34:09.208Z,-0.30
2018-12-06T16:36:37.597Z,-0.30
2018-12-06T16:39:07.548Z,-0.30
2018-12-06T16:41:35.902Z,-0.40
2018-12-06T16:44:05.400Z,-0.40
2018-12-06T16:46:33.702Z,-0.30
2018-12-06T16:49:09.837Z,-0.20
2018-12-06T16:51:30.887Z,-0.10
2018-12-06T16:53:59.339Z,0.00
2018-12-06T16:56:27.661Z,0.20
2018-12-06T16:58:56.136Z,0.30
2018-12-06T17:01:24.467Z,0.50
2018-12-06T17:03:52.809Z,0.70
2018-12-06T17:06:21.251Z,0.80
2018-12-06T17:08:49.608Z,0.80
2018-12-06T17:11:17.962Z,0.90
2018-12-06T17:13:46.322Z,1.00
2018-12-06T17:16:14.767Z,1.00
2018-12-06T17:18:43.080Z,1.00
2018-12-06T17:21:11.459Z,1.00
2018-12-06T17:23:39.784Z,1.10
2018-12-06T17:26:08.213Z,1.10
2018-12-06T17:28:36.559Z,1.00
2018-12-06T17:31:04.901Z,1.00
2018-12-06T17:33:33.225Z,1.10
2018-12-06T17:36:01.687Z,1.30
2018-12-06T17:38:30.023Z,1.30
2018-12-06T17:40:58.366Z,1.40
2018-12-06T17:43:26.782Z,1.40
2018-12-06T17:46:01.916Z,1.50
2018-12-06T17:48:30.354Z,1.50
2018-12-06T17:50:58.731Z,1.60
2018-12-06T17:53:27.063Z,1.70
2018-12-06T17:55:55.783Z,1.70
2018-12-06T17:58:24.229Z,1.80
2018-12-06T18:00:52.587Z,1.80
2018-12-06T18:03:21.006Z,1.80
2018-12-06T18:05:49.381Z,1.80
2018-12-06T18:08:18.071Z,1.80
2018-12-06T18:10:46.568Z,1.80
2018-12-06T18:13:16.120Z,1.80
2018-12-06T18:15:44.574Z,1.80
2018-12-06T18:18:12.908Z,1.80
2018-12-06T18:20:41.276Z,1.70
2018-12-06T18:23:09.631Z,1.70
2018-12-06T18:25:38.099Z,1.80
2018-12-06T18:28:06.499Z,1.90
2018-12-06T18:30:34.914Z,2.00
2018-12-06T18:33:03.343Z,2.00
2018-12-06T18:35:31.661Z,2.00
2018-12-06T18:38:00.242Z,2.00
2018-12-06T18:40:28.667Z,2.10
2018-12-06T18:42:57.199Z,2.10
2018-12-06T18:45:25.884Z,2.20
2018-12-06T18:47:54.450Z,2.20
2018-12-06T18:50:22.819Z,2.20
2018-12-06T18:52:51.223Z,2.20
2018-12-06T18:55:19.570Z,2.20
2018-12-06T18:57:48.008Z,2.20
2018-12-06T19:00:16.787Z,2.20
2018-12-06T19:02:45.182Z,2.30
2018-12-06T19:05:13.783Z,2.20
2018-12-06T19:07:42.305Z,2.20
2018-12-06T19:10:10.716Z,2.20
2018-12-06T19:12:39.267Z,2.10
2018-12-06T19:15:07.658Z,2.10
2018-12-06T19:17:36.278Z,2.00
2018-12-06T19:20:05.389Z,2.00
2018-12-06T19:22:33.805Z,1.90
2018-12-06T19:25:02.306Z,1.90
2018-12-06T19:27:30.659Z,1.90
2018-12-06T19:29:58.996Z,1.80
2018-12-06T19:32:27.383Z,1.80
2018-12-06T19:34:55.960Z,1.80
2018-12-06T19:37:24.577Z,1.80
2018-12-06T19:39:52.909Z,1.70
2018-12-06T19:42:21.314Z,1.70
2018-12-06T19:44:49.645Z,1.70
2018-12-06T19:47:17.960Z,1.70
2018-12-06T19:49:46.462Z,1.70
2018-12-06T19:52:14.930Z,1.70
2018-12-06T19:54:43.227Z,1.60
2018-12-06T19:57:11.550Z,1.60
2018-12-06T19:59:39.868Z,1.60
2018-12-06T20:02:08.216Z,1.60
2018-12-06T20:04:36.565Z,1.60
2018-12-06T20:07:05.072Z,1.70
2018-12-06T20:09:33.449Z,1.70
2018-12-06T20:12:01.766Z,1.70
2018-12-06T20:14:30.075Z,1.70
2018-12-06T20:16:58.407Z,1.90
2018-12-06T20:19:26.773Z,2.00
2018-12-06T20:21:55.139Z,2.00
2018-12-06T20:24:23.787Z,2.00
2018-12-06T20:26:52.107Z,2.00
2018-12-06T20:29:20.470Z,2.00
2018-12-06T20:31:48.889Z,2.20
2018-12-06T20:34:17.203Z,2.40
2018-12-06T20:36:45.537Z,2.50
2018-12-06T20:39:13.826Z,2.70
2018-12-06T20:41:42.398Z,2.70
2018-12-06T20:44:10.847Z,2.70
2018-12-06T20:46:39.218Z,2.90
2018-12-06T20:49:07.743Z,2.90
2018-12-06T20:51:36.242Z,2.90
2018-12-06T20:54:04.698Z,2.90
2018-12-06T20:56:33.893Z,2.90
2018-12-06T20:59:02.243Z,3.00
2018-12-06T21:01:30.581Z,3.00
2018-12-06T21:03:58.989Z,3.00
2018-12-06T21:06:27.398Z,3.10
2018-12-06T21:08:55.712Z,3.10
2018-12-06T21:11:24.051Z,3.10
2018-12-06T21:13:52.699Z,3.10
2018-12-06T21:16:21.079Z,3.20
2018-12-06T21:18:49.539Z,3.30
2018-12-06T21:21:17.856Z,3.30
2018-12-06T21:23:46.203Z,3.30
2018-12-06T21:26:14.544Z,3.40
2018-12-06T21:28:42.883Z,3.40
2018-12-06T21:31:11.239Z,3.40
2018-12-06T21:33:39.561Z,3.40
2018-12-06T21:36:08.197Z,3.40
2018-12-06T21:38:36.602Z,3.30
2018-12-06T21:41:04.942Z,3.30
2018-12-06T21:43:33.278Z,3.40
2018-12-06T21:46:01.760Z,3.40
2018-12-06T21:48:30.068Z,3.40
2018-12-06T21:50:58.397Z,3.40
2018-12-06T21:53:27.188Z,3.50
2018-12-06T21:55:55.565Z,3.40
2018-12-06T21:58:23.957Z,3.40
2018-12-06T22:00:52.321Z,3.40
2018-12-06T22:03:20.669Z,3.40
2018-12-06T22:05:48.974Z,3.30
2018-12-06T22:08:17.469Z,3.20
2018-12-06T22:10:45.805Z,3.20
2018-12-06T22:13:14.327Z,3.10
2018-12-06T22:15:42.717Z,3.10
2018-12-06T22:18:11.126Z,3.10
2018-12-06T22:20:39.445Z,3.10
2018-12-06T22:23:07.828Z,3.10
2018-12-06T22:25:36.241Z,3.10
2018-12-06T22:28:04.614Z,3.10
2018-12-06T22:30:33.155Z,3.10
2018-12-06T22:33:01.459Z,3.20
2018-12-06T22:35:29.791Z,3.30
2018-12-06T22:37:58.156Z,3.40
2018-12-06T22:40:26.466Z,3.50
2018-12-06T22:42:54.855Z,3.50
2018-12-06T22:46:27.027Z,3.50
2018-12-06T22:48:55.391Z,3.50
2018-12-06T22:51:24.412Z,3.50
2018-12-06T22:53:52.549Z,3.50
2018-12-06T22:56:20.907Z,3.50
2018-12-06T22:58:49.196Z,3.50
2018-12-06T23:01:17.540Z,3.50
2018-12-06T23:03:45.851Z,3.60
2018-12-06T23:06:14.647Z,3.60
2018-12-06T23:08:42.980Z,3.60
2018-12-06T23:11:11.329Z,3.60
2018-12-06T23:13:40.377Z,3.60
2018-12-06T23:16:08.698Z,3.70
2018-12-06T23:18:37.011Z,3.70
2018-12-06T23:21:05.984Z,3.70
2018-12-06T23:23:34.319Z,3.70
2018-12-06T23:26:02.654Z,3.70
2018-12-06T23:28:30.995Z,3.70
2018-12-06T23:30:59.324Z,3.70
2018-12-06T23:33:31.948Z,3.80
2018-12-06T23:35:56.246Z,3.80
2018-12-06T23:38:24.574Z,3.80
2018-12-06T23:40:53.163Z,3.80
2018-12-06T23:43:21.443Z,3.80
2018-12-06T23:45:49.772Z,3.80
2018-12-06T23:48:18.299Z,3.80
2018-12-06T23:50:46.631Z,3.90
2018-12-06T23:53:15.052Z,3.80
2018-12-06T23:55:43.707Z,3.90
2018-12-06T23:58:12.129Z,3.90
